Time;durP1;ratioP1;P1;durP2;ratioP2;P2;SDS_P1;SDS_P2;PMS_P1;PMS_P2;Temp;Humidity;BMP_temperature;BMP_pressure;BME280_temperature;BME280_humidity;BME280_pressure;Samples;Min_cycle;Max_cycle;Signal;HPM_P1;HPM_P2
2023/04/04 00:00:13;;;;;;;8.70;3.97;;;;;;;;;;5049916;28;20284;-61
2023/04/04 00:02:39;;;;;;;11.73;4.57;;;;;;;;;;5050633;28;20288;-61
2023/04/04 00:05:06;;;;;;;11.67;6.30;;;;;;;;;;5050642;28;20300;-61
2023/04/04 00:07:32;;;;;;;11.53;4.47;;;;;;;;;;5050375;28;20401;-61
2023/04/04 00:09:58;;;;;;;11.37;4.77;;;;;;;;;;5050228;28;20314;-62
2023/04/04 00:12:24;;;;;;;12.13;4.83;;;;;;;;;;5049932;28;20326;-61
2023/04/04 00:14:51;;;;;;;14.10;4.97;;;;;;;;;;5050183;28;20977;-61
2023/04/04 00:17:17;;;;;;;10.00;4.57;;;;;;;;;;5050461;28;20312;-61
2023/04/04 00:19:43;;;;;;;11.80;4.77;;;;;;;;;;5050532;28;20290;-61
2023/04/04 00:22:10;;;;;;;11.83;4.57;;;;;;;;;;5032804;28;20324;-60
2023/04/04 00:24:36;;;;;;;12.30;5.57;;;;;;;;;;5030055;28;20311;-60
2023/04/04 00:27:02;;;;;;;11.50;5.23;;;;;;;;;;5043721;28;20299;-60
2023/04/04 00:29:28;;;;;;;12.33;5.60;;;;;;;;;;5049689;28;20817;-60
2023/04/04 00:31:54;;;;;;;11.40;5.57;;;;;;;;;;5049519;28;20317;-60
2023/04/04 00:34:21;;;;;;;12.27;5.37;;;;;;;;;;5050162;28;20296;-61
2023/04/04 00:36:47;;;;;;;12.60;5.10;;;;;;;;;;5049057;28;20287;-60
2023/04/04 00:39:13;;;;;;;16.10;4.67;;;;;;;;;;5049581;28;20303;-59
2023/04/04 00:41:39;;;;;;;8.57;5.03;;;;;;;;;;5048270;28;20306;-60
2023/04/04 00:44:05;;;;;;;12.50;5.10;;;;;;;;;;5049581;28;20287;-60
2023/04/04 00:46:32;;;;;;;15.40;5.23;;;;;;;;;;5049603;28;20279;-61
2023/04/04 00:48:58;;;;;;;16.30;5.50;;;;;;;;;;5049675;28;20283;-60
2023/04/04 00:51:25;;;;;;;8.97;4.87;;;;;;;;;;5049229;28;20733;-60
2023/04/04 00:53:51;;;;;;;20.77;4.90;;;;;;;;;;5049828;28;20303;-60
2023/04/04 00:56:19;;;;;;;15.70;5.50;;;;;;;;;;5049094;28;20299;-60
2023/04/04 00:58:45;;;;;;;11.83;5.50;;;;;;;;;;5049948;28;20288;-61
2023/04/04 01:01:12;;;;;;;13.87;5.77;;;;;;;;;;5046748;28;20303;-60
2023/04/04 01:03:38;;;;;;;11.90;5.80;;;;;;;;;;5049230;28;20579;-60
2023/04/04 01:06:05;;;;;;;14.60;6.10;;;;;;;;;;5048811;28;20315;-60
2023/04/04 01:08:31;;;;;;;13.47;6.23;;;;;;;;;;5050369;28;20286;-60
2023/04/04 01:10:57;;;;;;;15.60;6.03;;;;;;;;;;5049969;28;20425;-60
2023/04/04 01:13:23;;;;;;;13.43;5.70;;;;;;;;;;5049790;28;20312;-60
2023/04/04 01:15:50;;;;;;;13.70;6.07;;;;;;;;;;5050174;28;20357;-60
2023/04/04 01:18:18;;;;;;;14.10;5.53;;;;;;;;;;5050114;28;20288;-60
2023/04/04 01:20:51;;;;;;;13.53;6.00;;;;;;;;;;5050328;28;20295;-60
2023/04/04 01:23:18;;;;;;;13.40;5.63;;;;;;;;;;5050072;28;20339;-60
2023/04/04 01:25:45;;;;;;;11.97;6.63;;;;;;;;;;5050240;28;20052;-60
2023/04/04 01:28:11;;;;;;;14.07;5.57;;;;;;;;;;5049661;28;20291;-60
2023/04/04 01:30:38;;;;;;;13.23;5.87;;;;;;;;;;5049195;28;20789;-61
2023/04/04 01:33:05;;;;;;;13.70;6.00;;;;;;;;;;5049111;28;20319;-60
2023/04/04 01:35:41;;;;;;;10.37;5.20;;;;;;;;;;5050037;28;20306;-60
2023/04/04 01:38:16;;;;;;;15.07;5.33;;;;;;;;;;5049390;28;20310;-60
2023/04/04 01:40:47;;;;;;;13.67;5.73;;;;;;;;;;5049834;28;20829;-60
2023/04/04 01:43:13;;;;;;;14.17;6.47;;;;;;;;;;5050229;28;20300;-60
2023/04/04 01:45:40;;;;;;;16.20;6.50;;;;;;;;;;5049871;28;20860;-60
2023/04/04 01:48:07;;;;;;;11.70;5.80;;;;;;;;;;5049075;28;20299;-60
2023/04/04 01:50:34;;;;;;;15.57;6.47;;;;;;;;;;5050049;28;20821;-61
2023/04/04 01:53:00;;;;;;;16.23;6.13;;;;;;;;;;5049899;28;20361;-60
2023/04/04 01:55:26;;;;;;;14.37;6.33;;;;;;;;;;5049482;28;20287;-60
2023/04/04 01:57:52;;;;;;;14.30;6.23;;;;;;;;;;5049886;28;20340;-60
2023/04/04 02:00:18;;;;;;;15.60;6.70;;;;;;;;;;5049847;28;20293;-60
2023/04/04 02:02:45;;;;;;;12.90;6.00;;;;;;;;;;5051950;28;20837;-60
2023/04/04 02:05:11;;;;;;;17.30;8.97;;;;;;;;;;5053318;28;20422;-61
2023/04/04 02:07:37;;;;;;;15.30;7.07;;;;;;;;;;5051493;28;20291;-60
2023/04/04 02:10:03;;;;;;;13.67;7.10;;;;;;;;;;5052679;28;20298;-60
2023/04/04 02:12:29;;;;;;;13.13;6.93;;;;;;;;;;5052852;28;20311;-60
2023/04/04 02:14:55;;;;;;;19.53;6.80;;;;;;;;;;5051939;28;20295;-60
2023/04/04 02:17:21;;;;;;;19.73;7.20;;;;;;;;;;5051534;28;20284;-60
2023/04/04 02:19:48;;;;;;;19.27;6.37;;;;;;;;;;5052667;28;20789;-60
2023/04/04 02:22:14;;;;;;;16.20;6.30;;;;;;;;;;5052190;28;20384;-60
2023/04/04 02:24:40;;;;;;;13.10;6.40;;;;;;;;;;5052115;28;20298;-60
2023/04/04 02:27:06;;;;;;;14.50;6.83;;;;;;;;;;5052376;28;20291;-60
2023/04/04 02:29:32;;;;;;;12.90;6.07;;;;;;;;;;5052450;28;20352;-61
2023/04/04 02:31:58;;;;;;;15.87;7.27;;;;;;;;;;5051727;28;20294;-61
2023/04/04 02:34:25;;;;;;;18.53;7.30;;;;;;;;;;5051976;28;20701;-61
2023/04/04 02:36:51;;;;;;;17.77;7.20;;;;;;;;;;5052253;28;20382;-60
2023/04/04 02:39:17;;;;;;;17.63;6.30;;;;;;;;;;5052220;28;20291;-60
2023/04/04 02:41:43;;;;;;;16.53;6.87;;;;;;;;;;5052077;28;20358;-61
2023/04/04 02:44:09;;;;;;;13.47;6.03;;;;;;;;;;5052313;28;20295;-60
2023/04/04 02:46:35;;;;;;;14.20;6.57;;;;;;;;;;5050766;28;21092;-61
2023/04/04 02:49:02;;;;;;;13.67;6.73;;;;;;;;;;5051857;28;20296;-61
2023/04/04 02:51:28;;;;;;;17.67;6.53;;;;;;;;;;5052022;28;20287;-61
2023/04/04 02:53:54;;;;;;;14.30;6.33;;;;;;;;;;5051488;28;20385;-61
2023/04/04 02:56:20;;;;;;;15.37;6.57;;;;;;;;;;5051789;28;20804;-61
2023/04/04 02:58:47;;;;;;;13.20;6.50;;;;;;;;;;5051137;28;20364;-61
2023/04/04 03:01:13;;;;;;;13.97;6.67;;;;;;;;;;5051850;28;20383;-61
2023/04/04 03:03:39;;;;;;;13.80;6.67;;;;;;;;;;5052084;28;20291;-61
2023/04/04 03:06:05;;;;;;;17.20;7.67;;;;;;;;;;5051495;28;20650;-61
2023/04/04 03:08:31;;;;;;;14.23;6.63;;;;;;;;;;5051482;28;20414;-61
2023/04/04 03:10:57;;;;;;;11.80;6.07;;;;;;;;;;5051457;28;20330;-60
2023/04/04 03:13:23;;;;;;;13.43;6.50;;;;;;;;;;5050025;28;20832;-61
2023/04/04 03:15:49;;;;;;;20.00;6.50;;;;;;;;;;5051533;28;20365;-60
2023/04/04 03:18:16;;;;;;;14.83;6.93;;;;;;;;;;5050451;28;20794;-61
2023/04/04 03:20:42;;;;;;;11.90;5.53;;;;;;;;;;5051470;28;20283;-60
2023/04/04 03:23:08;;;;;;;12.50;5.60;;;;;;;;;;5051134;28;20319;-61
2023/04/04 03:25:34;;;;;;;13.33;6.07;;;;;;;;;;5051384;28;20283;-61
2023/04/04 03:28:07;;;;;;;22.87;7.50;;;;;;;;;;5050414;28;20295;-61
2023/04/04 03:30:33;;;;;;;11.45;6.25;;;;;;;;;;5050654;28;20296;-61
2023/04/04 03:33:03;;;;;;;9.73;5.60;;;;;;;;;;5050965;28;20041;-61
2023/04/04 03:35:29;;;;;;;11.90;5.73;;;;;;;;;;5051272;28;20347;-61
2023/04/04 03:37:55;;;;;;;14.63;6.50;;;;;;;;;;5050797;28;20286;-61
2023/04/04 03:40:21;;;;;;;13.90;6.27;;;;;;;;;;5050413;28;20307;-61
2023/04/04 03:42:47;;;;;;;20.27;6.50;;;;;;;;;;5051033;28;20283;-61
2023/04/04 03:45:13;;;;;;;11.57;6.63;;;;;;;;;;5049896;28;20799;-60
2023/04/04 03:47:39;;;;;;;12.47;6.27;;;;;;;;;;5050751;28;20288;-61
2023/04/04 03:50:06;;;;;;;11.67;6.20;;;;;;;;;;5050480;28;20291;-61
2023/04/04 03:52:32;;;;;;;13.47;7.07;;;;;;;;;;5050490;28;20303;-61
2023/04/04 03:54:58;;;;;;;15.63;6.83;;;;;;;;;;5050265;28;20334;-60
2023/04/04 03:57:24;;;;;;;17.43;8.87;;;;;;;;;;5050043;28;20302;-61
2023/04/04 03:59:50;;;;;;;19.63;7.83;;;;;;;;;;5050179;28;20327;-61
2023/04/04 04:02:16;;;;;;;10.73;5.83;;;;;;;;;;5050312;28;20295;-61
2023/04/04 04:04:42;;;;;;;13.47;6.00;;;;;;;;;;5051028;28;20362;-60
2023/04/04 04:07:08;;;;;;;12.73;6.20;;;;;;;;;;5050742;28;20302;-60
2023/04/04 04:09:35;;;;;;;17.27;7.13;;;;;;;;;;5050772;28;20337;-61
2023/04/04 04:12:01;;;;;;;13.40;6.47;;;;;;;;;;5049509;28;20378;-61
2023/04/04 04:14:27;;;;;;;15.63;6.87;;;;;;;;;;5050357;28;20661;-61
2023/04/04 04:16:53;;;;;;;14.70;7.00;;;;;;;;;;5049656;28;21041;-61
2023/04/04 04:19:19;;;;;;;12.67;6.30;;;;;;;;;;5049501;28;20704;-61
2023/04/04 04:21:45;;;;;;;12.63;6.47;;;;;;;;;;5049435;28;20287;-61
2023/04/04 04:24:11;;;;;;;15.43;7.03;;;;;;;;;;5049945;28;20052;-61
2023/04/04 04:26:37;;;;;;;11.00;5.97;;;;;;;;;;5049703;28;20404;-61
2023/04/04 04:29:03;;;;;;;14.33;5.70;;;;;;;;;;5049169;28;20056;-61
2023/04/04 04:31:30;;;;;;;15.07;7.30;;;;;;;;;;5049971;28;20045;-61
2023/04/04 04:33:56;;;;;;;15.33;6.63;;;;;;;;;;5050263;28;20390;-61
2023/04/04 04:36:22;;;;;;;15.63;6.70;;;;;;;;;;5049771;28;20425;-61
2023/04/04 04:38:48;;;;;;;16.27;6.60;;;;;;;;;;5049250;28;20374;-61
2023/04/04 04:41:15;;;;;;;16.23;6.30;;;;;;;;;;5048545;28;20049;-61
2023/04/04 04:43:41;;;;;;;15.67;6.43;;;;;;;;;;5049848;28;20291;-61
2023/04/04 04:46:10;;;;;;;13.47;6.63;;;;;;;;;;5043390;28;20280;-61
2023/04/04 04:48:36;;;;;;;16.93;7.37;;;;;;;;;;5029872;28;20057;-61
2023/04/04 04:51:03;;;;;;;18.53;6.63;;;;;;;;;;5040664;28;20310;-61
2023/04/04 04:53:29;;;;;;;24.13;7.67;;;;;;;;;;5048141;28;20079;-60
2023/04/04 04:55:55;;;;;;;13.87;6.63;;;;;;;;;;5047858;28;20524;-61
2023/04/04 04:58:22;;;;;;;13.00;6.40;;;;;;;;;;5047371;28;20730;-60
2023/04/04 05:00:49;;;;;;;14.77;7.37;;;;;;;;;;5047462;28;20283;-61
2023/04/04 05:03:15;;;;;;;14.60;7.07;;;;;;;;;;5047619;28;20785;-61
2023/04/04 05:05:44;;;;;;;14.77;6.10;;;;;;;;;;5047497;28;20308;-61
2023/04/04 05:08:10;;;;;;;13.60;5.87;;;;;;;;;;5048105;28;20379;-61
2023/04/04 05:10:36;;;;;;;13.67;6.30;;;;;;;;;;5048734;28;20781;-61
2023/04/04 05:13:02;;;;;;;12.67;6.17;;;;;;;;;;5048618;28;20825;-61
2023/04/04 05:15:28;;;;;;;17.10;5.73;;;;;;;;;;5047905;28;20664;-61
2023/04/04 05:17:55;;;;;;;12.67;6.43;;;;;;;;;;5049091;28;20284;-62
2023/04/04 05:20:22;;;;;;;11.27;6.10;;;;;;;;;;5048450;28;20674;-61
2023/04/04 05:22:48;;;;;;;11.40;6.53;;;;;;;;;;5046954;28;20677;-61
2023/04/04 05:25:14;;;;;;;11.87;6.80;;;;;;;;;;5047729;28;20296;-61
2023/04/04 05:27:41;;;;;;;14.67;6.13;;;;;;;;;;5048920;28;20660;-61
2023/04/04 05:30:08;;;;;;;13.70;6.43;;;;;;;;;;5048274;28;20387;-61
2023/04/04 05:32:34;;;;;;;13.80;6.87;;;;;;;;;;5048436;28;20311;-61
2023/04/04 05:35:00;;;;;;;13.50;6.73;;;;;;;;;;5048376;28;20487;-61
2023/04/04 05:37:26;;;;;;;14.13;6.67;;;;;;;;;;5047540;28;20295;-61
2023/04/04 05:39:53;;;;;;;13.97;6.70;;;;;;;;;;5048664;28;20396;-61
2023/04/04 05:42:20;;;;;;;14.30;6.07;;;;;;;;;;5048706;28;20364;-61
2023/04/04 05:44:46;;;;;;;14.77;6.70;;;;;;;;;;5048318;28;20797;-61
2023/04/04 05:47:12;;;;;;;16.27;6.70;;;;;;;;;;5047263;28;20291;-61
2023/04/04 05:49:38;;;;;;;15.97;6.63;;;;;;;;;;5049031;28;20288;-61
2023/04/04 05:52:04;;;;;;;14.93;7.47;;;;;;;;;;5048072;28;20283;-61
2023/04/04 05:54:30;;;;;;;15.00;7.70;;;;;;;;;;5048884;28;20287;-61
2023/04/04 05:56:56;;;;;;;18.33;7.60;;;;;;;;;;5049087;28;20294;-61
2023/04/04 05:59:23;;;;;;;14.87;6.57;;;;;;;;;;5047169;28;20041;-61
2023/04/04 06:01:49;;;;;;;12.40;6.67;;;;;;;;;;5048624;28;20286;-61
2023/04/04 06:04:15;;;;;;;14.43;6.93;;;;;;;;;;5047778;28;20298;-61
2023/04/04 06:06:41;;;;;;;15.13;6.97;;;;;;;;;;5048505;28;20352;-61
2023/04/04 06:09:07;;;;;;;16.93;6.73;;;;;;;;;;5047921;28;20366;-61
2023/04/04 06:11:33;;;;;;;12.13;6.50;;;;;;;;;;5048267;28;20098;-61
2023/04/04 06:13:59;;;;;;;16.73;6.70;;;;;;;;;;5048434;28;20053;-61
2023/04/04 06:16:25;;;;;;;12.60;5.80;;;;;;;;;;5048513;28;20053;-61
2023/04/04 06:18:51;;;;;;;15.23;6.70;;;;;;;;;;5048129;28;20654;-61
2023/04/04 06:21:17;;;;;;;14.37;6.57;;;;;;;;;;5047535;28;20310;-61
2023/04/04 06:23:43;;;;;;;12.37;6.90;;;;;;;;;;5048396;28;20284;-61
2023/04/04 06:26:10;;;;;;;15.73;7.37;;;;;;;;;;5048583;28;20370;-61
2023/04/04 06:28:36;;;;;;;13.00;6.77;;;;;;;;;;5039222;28;20327;-61
2023/04/04 06:31:05;;;;;;;13.43;6.90;;;;;;;;;;5047961;28;20288;-61
2023/04/04 06:33:31;;;;;;;17.57;6.80;;;;;;;;;;5048278;28;20315;-62
2023/04/04 06:35:57;;;;;;;15.33;6.67;;;;;;;;;;5031232;28;20295;-61
2023/04/04 06:38:23;;;;;;;15.43;6.87;;;;;;;;;;5028159;28;20049;-61
2023/04/04 06:40:49;;;;;;;13.87;6.53;;;;;;;;;;5028317;28;20288;-61
2023/04/04 06:43:15;;;;;;;15.53;7.90;;;;;;;;;;5029750;28;20295;-61
2023/04/04 06:45:42;;;;;;;13.23;6.73;;;;;;;;;;5028068;28;20341;-62
2023/04/04 06:48:08;;;;;;;13.00;6.30;;;;;;;;;;5043931;28;20714;-62
2023/04/04 06:50:35;;;;;;;14.27;6.30;;;;;;;;;;5051049;28;20295;-61
2023/04/04 06:53:01;;;;;;;11.03;5.60;;;;;;;;;;5051741;28;20318;-61
2023/04/04 06:55:28;;;;;;;13.30;6.63;;;;;;;;;;5051795;28;20303;-61
2023/04/04 06:57:54;;;;;;;15.93;6.60;;;;;;;;;;5050499;28;20304;-61
2023/04/04 07:00:20;;;;;;;11.70;6.33;;;;;;;;;;5044612;28;20307;-61
2023/04/04 07:02:46;;;;;;;14.33;6.23;;;;;;;;;;5051114;28;20470;-61
2023/04/04 07:05:13;;;;;;;11.80;6.03;;;;;;;;;;5051495;28;20370;-61
2023/04/04 07:07:39;;;;;;;9.50;5.10;;;;;;;;;;5050556;28;20048;-61
2023/04/04 07:10:05;;;;;;;17.53;7.43;;;;;;;;;;5051305;28;20292;-61
2023/04/04 07:12:32;;;;;;;14.03;5.30;;;;;;;;;;5050855;28;20295;-61
2023/04/04 07:14:58;;;;;;;11.87;5.53;;;;;;;;;;5050598;28;20303;-61
2023/04/04 07:17:24;;;;;;;10.40;6.00;;;;;;;;;;5051038;28;20726;-64
2023/04/04 07:19:50;;;;;;;8.63;5.43;;;;;;;;;;5050486;28;20438;-60
2023/04/04 07:22:16;;;;;;;12.83;4.63;;;;;;;;;;5050379;28;20676;-61
2023/04/04 07:24:42;;;;;;;10.73;4.00;;;;;;;;;;5050988;28;20803;-62
2023/04/04 07:27:08;;;;;;;8.40;3.93;;;;;;;;;;5050838;28;20295;-61
2023/04/04 07:29:34;;;;;;;7.60;3.60;;;;;;;;;;5038679;28;20306;-61
2023/04/04 07:32:00;;;;;;;8.77;3.43;;;;;;;;;;5049823;28;20135;-61
2023/04/04 07:34:28;;;;;;;8.73;3.33;;;;;;;;;;5050733;28;20319;-61
2023/04/04 07:36:54;;;;;;;11.00;3.67;;;;;;;;;;5050381;28;20072;-61
2023/04/04 07:39:20;;;;;;;4.27;2.30;;;;;;;;;;5049072;28;20804;-61
2023/04/04 07:41:46;;;;;;;5.37;2.53;;;;;;;;;;5050882;28;20046;-60
2023/04/04 07:44:12;;;;;;;6.17;2.60;;;;;;;;;;5048934;28;20338;-61
2023/04/04 07:46:38;;;;;;;5.47;2.40;;;;;;;;;;5050425;28;20088;-61
2023/04/04 07:49:05;;;;;;;8.53;2.23;;;;;;;;;;5049543;28;20144;-62
2023/04/04 07:51:31;;;;;;;7.43;3.07;;;;;;;;;;5041550;28;20350;-61
2023/04/04 07:53:57;;;;;;;11.63;2.70;;;;;;;;;;5044053;28;20136;-61
2023/04/04 07:56:23;;;;;;;4.13;2.20;;;;;;;;;;5043682;28;20391;-61
2023/04/04 07:58:49;;;;;;;8.70;3.30;;;;;;;;;;5044807;28;20120;-61
2023/04/04 08:01:15;;;;;;;5.03;2.60;;;;;;;;;;5041765;28;20056;-61
2023/04/04 08:03:41;;;;;;;7.10;3.50;;;;;;;;;;5041081;28;20041;-61
2023/04/04 08:06:07;;;;;;;5.90;2.70;;;;;;;;;;5046420;28;20076;-61
2023/04/04 08:08:33;;;;;;;7.57;2.60;;;;;;;;;;5042433;28;20529;-60
2023/04/04 08:10:59;;;;;;;9.73;2.40;;;;;;;;;;5038321;28;20153;-61
2023/04/04 08:13:25;;;;;;;6.00;2.47;;;;;;;;;;5039188;28;20048;-60
2023/04/04 08:15:51;;;;;;;6.20;2.20;;;;;;;;;;5041669;28;20120;-61
2023/04/04 08:18:18;;;;;;;6.80;3.63;;;;;;;;;;5045402;28;20151;-62
2023/04/04 08:20:44;;;;;;;4.97;2.30;;;;;;;;;;5042623;28;20075;-62
2023/04/04 08:23:11;;;;;;;7.77;2.63;;;;;;;;;;5042225;28;20054;-62
2023/04/04 08:25:38;;;;;;;14.07;2.70;;;;;;;;;;5038878;28;20053;-62
2023/04/04 08:28:04;;;;;;;8.83;2.40;;;;;;;;;;5046690;28;20163;-62
2023/04/04 08:30:30;;;;;;;7.30;2.20;;;;;;;;;;5038437;28;20084;-60
2023/04/04 08:32:57;;;;;;;7.53;3.13;;;;;;;;;;5039490;28;20044;-62
2023/04/04 08:35:24;;;;;;;6.90;2.03;;;;;;;;;;5038499;28;20049;-60
2023/04/04 08:37:50;;;;;;;9.30;2.03;;;;;;;;;;5037387;28;20132;-61
2023/04/04 08:40:16;;;;;;;5.33;1.67;;;;;;;;;;5038122;28;20053;-61
2023/04/04 08:42:45;;;;;;;5.40;1.77;;;;;;;;;;5036995;28;20471;-61
2023/04/04 08:45:11;;;;;;;5.47;1.50;;;;;;;;;;5040410;28;20045;-62
2023/04/04 08:47:38;;;;;;;3.87;1.80;;;;;;;;;;5040089;28;20487;-61
2023/04/04 08:50:05;;;;;;;8.07;2.17;;;;;;;;;;5036768;28;20103;-61
2023/04/04 08:52:32;;;;;;;4.00;1.73;;;;;;;;;;5036564;28;20045;-61
2023/04/04 08:54:58;;;;;;;4.73;2.20;;;;;;;;;;5039989;28;20127;-62
2023/04/04 08:57:24;;;;;;;6.80;2.00;;;;;;;;;;5046188;28;20037;-61
2023/04/04 08:59:50;;;;;;;6.23;1.53;;;;;;;;;;5040984;28;20057;-62
2023/04/04 09:02:16;;;;;;;5.63;1.67;;;;;;;;;;5040485;28;20053;-62
2023/04/04 09:04:43;;;;;;;5.17;1.77;;;;;;;;;;5038962;28;20132;-61
2023/04/04 09:07:10;;;;;;;2.73;1.10;;;;;;;;;;5035620;28;20045;-61
2023/04/04 09:09:37;;;;;;;5.93;1.30;;;;;;;;;;5043789;28;20750;-62
2023/04/04 09:12:04;;;;;;;3.80;1.43;;;;;;;;;;5047053;28;20056;-62
2023/04/04 09:14:30;;;;;;;2.83;1.30;;;;;;;;;;5048184;28;20041;-61
2023/04/04 09:16:56;;;;;;;4.87;1.47;;;;;;;;;;5049334;28;20041;-61
2023/04/04 09:19:22;;;;;;;3.87;1.27;;;;;;;;;;5054993;28;20123;-62
2023/04/04 09:21:49;;;;;;;5.73;1.40;;;;;;;;;;5057949;28;20041;-62
2023/04/04 09:24:15;;;;;;;3.57;1.57;;;;;;;;;;5047209;28;20094;-62
2023/04/04 09:26:48;;;;;;;4.33;1.53;;;;;;;;;;5038099;28;20483;-62
2023/04/04 09:29:17;;;;;;;2.97;1.33;;;;;;;;;;5040362;28;20057;-62
2023/04/04 09:31:45;;;;;;;4.13;1.77;;;;;;;;;;5045745;28;20045;-62
2023/04/04 09:34:12;;;;;;;5.60;1.50;;;;;;;;;;5038128;28;20431;-62
2023/04/04 09:36:38;;;;;;;4.33;1.40;;;;;;;;;;5036752;28;20060;-62
2023/04/04 09:39:05;;;;;;;7.60;1.50;;;;;;;;;;5038147;28;20107;-62
2023/04/04 09:41:31;;;;;;;4.33;1.63;;;;;;;;;;5038932;28;20038;-62
2023/04/04 09:43:57;;;;;;;5.70;1.53;;;;;;;;;;5035979;28;20776;-62
2023/04/04 09:46:25;;;;;;;6.50;1.80;;;;;;;;;;5038249;28;20113;-61
2023/04/04 09:48:53;;;;;;;4.53;2.57;;;;;;;;;;5039053;28;20049;-62
2023/04/04 09:51:19;;;;;;;4.43;1.63;;;;;;;;;;5039580;28;20057;-62
2023/04/04 09:53:47;;;;;;;5.03;1.83;;;;;;;;;;5041126;28;20455;-62
2023/04/04 09:56:13;;;;;;;3.47;1.20;;;;;;;;;;5039257;28;20041;-62
2023/04/04 09:58:40;;;;;;;4.13;1.60;;;;;;;;;;5037172;28;20133;-62
2023/04/04 10:01:09;;;;;;;4.57;1.50;;;;;;;;;;5028116;28;20512;-61
2023/04/04 10:03:37;;;;;;;3.53;1.40;;;;;;;;;;5034477;28;20044;-62
2023/04/04 10:06:04;;;;;;;5.60;1.50;;;;;;;;;;5048260;28;20521;-62
2023/04/04 10:08:31;;;;;;;5.23;1.63;;;;;;;;;;5048825;28;20384;-62
2023/04/04 10:11:01;;;;;;;4.37;1.33;;;;;;;;;;5047902;28;20049;-62
2023/04/04 10:13:28;;;;;;;4.30;1.50;;;;;;;;;;5043656;28;20098;-62
2023/04/04 10:15:56;;;;;;;3.10;1.50;;;;;;;;;;5046387;28;20052;-62
2023/04/04 10:18:26;;;;;;;3.93;1.63;;;;;;;;;;5047014;28;20273;-63
2023/04/04 10:20:55;;;;;;;4.57;1.70;;;;;;;;;;5040563;28;20049;-62
2023/04/04 10:23:23;;;;;;;5.13;2.43;;;;;;;;;;5047724;28;20048;-60
2023/04/04 10:25:50;;;;;;;4.97;1.73;;;;;;;;;;5046875;28;20053;-62
2023/04/04 10:28:17;;;;;;;5.70;1.80;;;;;;;;;;5042407;28;20083;-61
2023/04/04 10:30:46;;;;;;;5.00;1.80;;;;;;;;;;5044084;28;20049;-60
2023/04/04 10:33:32;;;;;;;6.00;2.23;;;;;;;;;;5047844;28;20057;-60
2023/04/04 10:36:02;;;;;;;4.80;1.80;;;;;;;;;;5045258;28;20071;-61
2023/04/04 10:38:28;;;;;;;5.27;2.07;;;;;;;;;;5049343;28;20040;-61
2023/04/04 10:40:59;;;;;;;7.77;1.70;;;;;;;;;;5050436;28;20043;-61
2023/04/04 10:43:25;;;;;;;6.77;1.57;;;;;;;;;;5050863;28;20053;-61
2023/04/04 10:45:52;;;;;;;4.60;1.60;;;;;;;;;;5051358;28;20487;-61
2023/04/04 10:48:18;;;;;;;4.47;1.67;;;;;;;;;;5044321;28;20045;-61
2023/04/04 10:50:44;;;;;;;3.70;1.97;;;;;;;;;;5043317;28;20050;-61
2023/04/04 10:53:11;;;;;;;4.80;2.20;;;;;;;;;;5043204;28;20044;-61
2023/04/04 10:55:39;;;;;;;5.40;2.20;;;;;;;;;;5040467;28;20514;-61
2023/04/04 10:58:07;;;;;;;3.83;1.80;;;;;;;;;;5040109;28;20037;-61
2023/04/04 11:00:33;;;;;;;5.13;2.30;;;;;;;;;;5039841;28;20045;-60
2023/04/04 11:03:00;;;;;;;5.27;1.83;;;;;;;;;;5042130;28;20052;-61
2023/04/04 11:05:36;;;;;;;4.53;1.83;;;;;;;;;;5044631;28;20037;-61
2023/04/04 11:08:03;;;;;;;7.27;2.63;;;;;;;;;;5043929;28;20498;-61
2023/04/04 11:10:30;;;;;;;5.70;2.37;;;;;;;;;;5044894;28;20414;-61
2023/04/04 11:13:06;;;;;;;4.90;2.20;;;;;;;;;;5044202;28;20496;-61
2023/04/04 11:15:45;;;;;;;5.30;2.23;;;;;;;;;;5044683;28;20060;-61
2023/04/04 11:18:12;;;;;;;5.27;2.00;;;;;;;;;;5044371;28;20049;-61
2023/04/04 11:20:44;;;;;;;5.30;1.87;;;;;;;;;;5044477;28;20045;-61
2023/04/04 11:23:19;;;;;;;4.80;1.97;;;;;;;;;;5037580;28;20610;-61
2023/04/04 11:25:55;;;;;;;6.07;2.30;;;;;;;;;;5044964;28;20053;-61
2023/04/04 11:28:33;;;;;;;4.47;1.87;;;;;;;;;;5045353;28;20056;-61
2023/04/04 11:31:15;;;;;;;5.50;2.37;;;;;;;;;;5035260;28;20041;-61
2023/04/04 11:33:56;;;;;;;7.73;2.37;;;;;;;;;;5034324;28;20050;-62
2023/04/04 11:36:38;;;;;;;4.97;2.10;;;;;;;;;;5036234;28;20052;-61
2023/04/04 11:39:04;;;;;;;5.30;1.60;;;;;;;;;;5042180;28;20041;-62
2023/04/04 11:41:50;;;;;;;3.77;1.80;;;;;;;;;;5038811;28;20052;-62
2023/04/04 11:44:16;;;;;;;6.37;2.13;;;;;;;;;;5040119;28;20061;-61
2023/04/04 11:46:43;;;;;;;7.73;1.70;;;;;;;;;;5040579;28;20049;-62
2023/04/04 11:49:09;;;;;;;5.00;2.10;;;;;;;;;;5036384;28;20067;-61
2023/04/04 11:51:36;;;;;;;4.50;2.23;;;;;;;;;;5040492;28;20056;-62
2023/04/04 11:54:02;;;;;;;3.33;1.80;;;;;;;;;;5034650;28;20049;-61
2023/04/04 11:56:33;;;;;;;5.87;2.20;;;;;;;;;;5038558;28;20057;-61
2023/04/04 11:59:00;;;;;;;4.50;2.13;;;;;;;;;;5041294;28;20048;-61
2023/04/04 12:01:26;;;;;;;6.07;2.33;;;;;;;;;;5042000;28;20385;-61
2023/04/04 12:03:52;;;;;;;4.93;2.43;;;;;;;;;;5038284;28;20045;-62
2023/04/04 12:06:18;;;;;;;5.10;2.20;;;;;;;;;;5040037;28;20057;-61
2023/04/04 12:08:44;;;;;;;10.13;3.27;;;;;;;;;;5036898;28;20070;-61
2023/04/04 12:11:14;;;;;;;4.50;2.13;;;;;;;;;;5036116;28;20037;-62
2023/04/04 12:13:44;;;;;;;3.63;2.00;;;;;;;;;;5039506;28;20052;-62
2023/04/04 12:16:10;;;;;;;4.53;1.73;;;;;;;;;;5037287;28;20049;-61
2023/04/04 12:18:36;;;;;;;4.70;2.50;;;;;;;;;;5035243;28;20033;-62
2023/04/04 12:21:03;;;;;;;6.73;2.53;;;;;;;;;;5041308;28;20503;-62
2023/04/04 12:23:35;;;;;;;4.57;2.20;;;;;;;;;;5043132;28;20411;-61
2023/04/04 12:26:04;;;;;;;6.70;2.35;;;;;;;;;;5036325;28;20041;-61
2023/04/04 12:28:33;;;;;;;4.00;2.30;;;;;;;;;;5033984;28;20045;-61
2023/04/04 12:31:04;;;;;;;6.50;2.03;;;;;;;;;;5038620;28;20052;-61
2023/04/04 12:33:33;;;;;;;7.70;2.30;;;;;;;;;;5040455;28;20051;-61
2023/04/04 12:36:02;;;;;;;7.53;2.33;;;;;;;;;;5063044;28;20040;-61
2023/04/04 12:38:30;;;;;;;6.60;1.97;;;;;;;;;;5048579;28;20048;-61
2023/04/04 12:40:56;;;;;;;4.60;2.20;;;;;;;;;;5048525;28;20073;-61
2023/04/04 12:43:22;;;;;;;5.63;2.40;;;;;;;;;;5042960;28;20095;-62
2023/04/04 12:45:51;;;;;;;5.73;2.40;;;;;;;;;;5038529;28;20095;-61
2023/04/04 12:48:17;;;;;;;4.30;2.43;;;;;;;;;;5038165;28;20037;-61
2023/04/04 12:50:56;;;;;;;5.53;2.13;;;;;;;;;;5032042;28;20057;-61
2023/04/04 12:53:24;;;;;;;6.97;2.20;;;;;;;;;;5029609;28;20053;-61
2023/04/04 12:55:50;;;;;;;7.17;2.57;;;;;;;;;;5028980;28;20090;-61
2023/04/04 12:58:17;;;;;;;6.60;2.30;;;;;;;;;;5029398;28;20049;-61
2023/04/04 13:00:43;;;;;;;3.90;2.20;;;;;;;;;;5028727;28;20052;-60
2023/04/04 13:03:11;;;;;;;5.23;2.93;;;;;;;;;;5028994;28;20100;-61
2023/04/04 13:05:37;;;;;;;6.17;2.13;;;;;;;;;;5028593;28;20050;-61
2023/04/04 13:08:07;;;;;;;5.13;2.50;;;;;;;;;;5028739;28;20530;-61
2023/04/04 13:10:51;;;;;;;4.40;2.07;;;;;;;;;;5028717;28;20084;-61
2023/04/04 13:13:34;;;;;;;4.60;2.03;;;;;;;;;;5028825;28;20057;-61
2023/04/04 13:16:00;;;;;;;5.28;2.40;;;;;;;;;;5028793;28;20111;-61
2023/04/04 13:18:31;;;;;;;8.10;2.33;;;;;;;;;;5035856;28;20037;-62
2023/04/04 13:20:57;;;;;;;4.27;1.90;;;;;;;;;;5039053;28;20046;-62
2023/04/04 13:23:23;;;;;;;5.63;2.40;;;;;;;;;;5040104;28;20527;-62
2023/04/04 13:25:50;;;;;;;4.10;2.07;;;;;;;;;;5037086;28;20060;-61
2023/04/04 13:28:16;;;;;;;5.43;2.17;;;;;;;;;;5036769;28;20054;-61
2023/04/04 13:30:47;;;;;;;3.77;2.13;;;;;;;;;;5036774;28;20481;-61
2023/04/04 13:33:13;;;;;;;4.77;2.33;;;;;;;;;;5038827;28;20056;-62
2023/04/04 13:35:39;;;;;;;5.03;2.13;;;;;;;;;;5037954;28;20059;-61
2023/04/04 13:38:05;;;;;;;5.30;2.30;;;;;;;;;;5037380;28;20527;-61
2023/04/04 13:40:31;;;;;;;5.53;2.10;;;;;;;;;;5037103;28;20041;-61
2023/04/04 13:42:57;;;;;;;4.23;2.30;;;;;;;;;;5038483;28;20110;-61
2023/04/04 13:45:23;;;;;;;6.87;2.63;;;;;;;;;;5037601;28;20388;-61
2023/04/04 13:47:49;;;;;;;3.00;2.07;;;;;;;;;;5036606;28;20132;-61
2023/04/04 13:50:17;;;;;;;5.10;2.63;;;;;;;;;;5030916;28;20103;-61
2023/04/04 13:52:43;;;;;;;5.00;2.50;;;;;;;;;;5028274;28;20420;-61
2023/04/04 13:55:09;;;;;;;3.90;2.03;;;;;;;;;;5043387;28;20045;-61
2023/04/04 13:57:35;;;;;;;6.37;2.40;;;;;;;;;;5034010;28;20135;-61
2023/04/04 14:00:03;;;;;;;5.07;2.35;;;;;;;;;;5045361;28;20110;-62
2023/04/04 14:02:29;;;;;;;3.88;1.95;;;;;;;;;;5046453;28;20046;-62
2023/04/04 14:04:55;;;;;;;6.05;3.00;;;;;;;;;;5046327;28;20049;-62
2023/04/04 14:07:21;;;;;;;4.53;2.53;;;;;;;;;;5046589;28;20499;-62
2023/04/04 14:09:47;;;;;;;4.18;2.15;;;;;;;;;;5045984;28;20393;-61
2023/04/04 14:12:13;;;;;;;5.10;2.50;;;;;;;;;;5038976;28;20491;-61
2023/04/04 14:14:40;;;;;;;3.65;2.67;;;;;;;;;;5034967;28;20091;-62
2023/04/04 14:17:06;;;;;;;4.35;2.38;;;;;;;;;;5034614;28;20045;-61
2023/04/04 14:19:32;;;;;;;5.43;2.17;;;;;;;;;;5040060;28;20049;-62
2023/04/04 14:21:58;;;;;;;4.78;2.40;;;;;;;;;;5040396;28;20609;-60
2023/04/04 14:24:24;;;;;;;5.43;2.42;;;;;;;;;;5045113;28;20123;-61
2023/04/04 14:26:50;;;;;;;5.75;2.40;;;;;;;;;;5044343;28;20134;-62
2023/04/04 14:29:16;;;;;;;5.05;2.47;;;;;;;;;;5053916;28;20446;-62
2023/04/04 14:31:42;;;;;;;5.30;2.42;;;;;;;;;;5054715;28;20059;-62
2023/04/04 14:34:09;;;;;;;4.47;2.50;;;;;;;;;;5045789;28;20103;-62